Carlton, AL (36515)

10:21 PM CDT on April 30, 2017 (GMT -0500)
Jackson, AL | | Change Station

Elev 53 ft 31.49 °N, 87.90 °W | Updated 24 seconds ago

Overcast
Overcast
76.3 °F
Feels Like 78 °F
N
0.0
Wind Variable Wind from WNW
Gusts 0.0 mph

Today
High -- | Low -- °F
--% Chance of Precip.
Yesterday
High -- | Low -- °F
Precip. -- in
Pressure 29.92 in
Visibility 10.0 miles
Clouds Few 8000 ft
Scattered Clouds 9000 ft
Mostly Cloudy 12000 ft
Heat Index 78 °F
Dew Point 69 °F
Humidity 78%
Rainfall 0.00 in
Snow Depth Not available.
6:07 AM 7:30 PM
Waxing Crescent, 28% visible
METAR KGZH 010153Z AUTO 17014G22KT 10SM -RA FEW080 SCT090 BKN120 20/18 A2993 RMK AO2 PK WND 16028/0129 WSHFT 0133 LTG DSNT NE-SE TSE05B20E35 SLP131 P0003 T02000183
Pressure 29.92 in
Visibility 10.0 miles
Clouds Few 8000 ft
Scattered Clouds 9000 ft
Mostly Cloudy 12000 ft
Heat Index 78 °F
Dew Point 69 °F
Humidity 78%
Rainfall 0.00 in
Snow Depth Not available.
6:07 AM 7:30 PM
Waxing Crescent, 28% visible
METAR KGZH 010153Z AUTO 17014G22KT 10SM -RA FEW080 SCT090 BKN120 20/18 A2993 RMK AO2 PK WND 16028/0129 WSHFT 0133 LTG DSNT NE-SE TSE05B20E35 SLP131 P0003 T02000183

Get Severe Weather Alerts

Thanks for signing up!

Be on the lookout for a verification email in your inbox.

You'll start receiving the daily forecast at 8 AM.

×

10-Day Weather Forecast

Almanac

Astronomy

Apr. 30, 2017 Rise Set
Actual Time
Civil Twilight
Nautical Twilight
Astronomical Twilight
Moon
Length of Visible Light
Length of Day
Tomorrow will be .
, % of the Moon is Illuminated

Today's Extremes

State Highs State Lows

Community

WunderPhotos

WunderBlog® & News

Nearby

Air Quality

  Air Quality AQ Index Pollutant
Not available.

Snow Depth

Station Depth Elevation

Earthquake Activity

City Distance Mag. Time & Date
Minimum magnitude displayed is 2.5.

Coastal Water Temperatures

Place Temperature

Stations

Nearby Weather Stations

Station Location Temp. Windchill Dew Point Humidity Wind Precip. Elev Updated Type
                   

Watches & Warnings

There are currently no watches in effect.